sensor_id;sensor_type;location;lat;lon;timestamp;P1;durP1;ratioP1;P2;durP2;ratioP2
4122;SDS011;2075;51.062;6.920;2023-04-03T00:01:58;12.53;;;6.90;;
4122;SDS011;2075;51.062;6.920;2023-04-03T00:04:59;11.17;;;7.60;;
4122;SDS011;2075;51.062;6.920;2023-04-03T00:07:45;11.03;;;6.70;;
4122;SDS011;2075;51.062;6.920;2023-04-03T00:10:56;8.77;;;6.57;;
4122;SDS011;2075;51.062;6.920;2023-04-03T00:14:00;10.20;;;7.33;;
4122;SDS011;2075;51.062;6.920;2023-04-03T00:16:52;11.80;;;6.47;;
4122;SDS011;2075;51.062;6.920;2023-04-03T00:19:40;11.97;;;6.87;;
4122;SDS011;2075;51.062;6.920;2023-04-03T00:22:39;7.70;;;6.17;;
4122;SDS011;2075;51.062;6.920;2023-04-03T00:29:28;8.53;;;7.10;;
4122;SDS011;2075;51.062;6.920;2023-04-03T00:32:51;11.53;;;6.17;;
4122;SDS011;2075;51.062;6.920;2023-04-03T00:35:44;10.87;;;7.10;;
4122;SDS011;2075;51.062;6.920;2023-04-03T00:38:36;10.17;;;7.60;;
4122;SDS011;2075;51.062;6.920;2023-04-03T00:41:40;13.43;;;8.03;;
4122;SDS011;2075;51.062;6.920;2023-04-03T00:48:44;8.57;;;7.50;;
4122;SDS011;2075;51.062;6.920;2023-04-03T00:51:30;9.67;;;7.43;;
4122;SDS011;2075;51.062;6.920;2023-04-03T00:54:16;8.40;;;6.70;;
4122;SDS011;2075;51.062;6.920;2023-04-03T00:57:02;13.70;;;7.40;;
4122;SDS011;2075;51.062;6.920;2023-04-03T00:59:49;13.43;;;7.30;;
4122;SDS011;2075;51.062;6.920;2023-04-03T01:02:38;9.20;;;6.57;;
4122;SDS011;2075;51.062;6.920;2023-04-03T01:05:26;15.70;;;7.37;;
4122;SDS011;2075;51.062;6.920;2023-04-03T01:08:11;7.80;;;6.83;;
4122;SDS011;2075;51.062;6.920;2023-04-03T01:10:57;8.03;;;7.07;;
4122;SDS011;2075;51.062;6.920;2023-04-03T01:13:44;10.67;;;6.97;;
4122;SDS011;2075;51.062;6.920;2023-04-03T01:16:29;13.60;;;7.83;;
4122;SDS011;2075;51.062;6.920;2023-04-03T01:19:17;12.13;;;7.87;;
4122;SDS011;2075;51.062;6.920;2023-04-03T01:22:10;9.93;;;7.60;;
4122;SDS011;2075;51.062;6.920;2023-04-03T01:25:04;13.70;;;8.50;;
4122;SDS011;2075;51.062;6.920;2023-04-03T01:27:50;12.03;;;7.87;;
4122;SDS011;2075;51.062;6.920;2023-04-03T01:30:36;12.83;;;8.37;;
4122;SDS011;2075;51.062;6.920;2023-04-03T01:33:29;11.20;;;8.03;;
4122;SDS011;2075;51.062;6.920;2023-04-03T01:36:16;12.40;;;7.93;;
4122;SDS011;2075;51.062;6.920;2023-04-03T01:39:08;9.00;;;7.50;;
4122;SDS011;2075;51.062;6.920;2023-04-03T01:41:54;8.57;;;7.40;;
4122;SDS011;2075;51.062;6.920;2023-04-03T01:44:46;11.20;;;7.53;;
4122;SDS011;2075;51.062;6.920;2023-04-03T01:47:32;9.53;;;7.00;;
4122;SDS011;2075;51.062;6.920;2023-04-03T01:50:19;9.93;;;7.30;;
4122;SDS011;2075;51.062;6.920;2023-04-03T01:53:05;7.57;;;6.50;;
4122;SDS011;2075;51.062;6.920;2023-04-03T01:55:51;12.20;;;7.10;;
4122;SDS011;2075;51.062;6.920;2023-04-03T01:58:37;16.03;;;7.40;;
4122;SDS011;2075;51.062;6.920;2023-04-03T02:01:26;9.13;;;7.43;;
4122;SDS011;2075;51.062;6.920;2023-04-03T02:04:11;14.33;;;7.50;;
4122;SDS011;2075;51.062;6.920;2023-04-03T02:06:58;9.60;;;7.57;;
4122;SDS011;2075;51.062;6.920;2023-04-03T02:09:44;8.63;;;6.60;;
4122;SDS011;2075;51.062;6.920;2023-04-03T02:12:29;8.37;;;6.93;;
4122;SDS011;2075;51.062;6.920;2023-04-03T02:15:17;16.83;;;7.00;;
4122;SDS011;2075;51.062;6.920;2023-04-03T02:18:05;10.27;;;6.70;;
4122;SDS011;2075;51.062;6.920;2023-04-03T02:20:51;8.90;;;6.23;;
4122;SDS011;2075;51.062;6.920;2023-04-03T02:23:38;8.50;;;6.27;;
4122;SDS011;2075;51.062;6.920;2023-04-03T02:26:26;9.43;;;6.37;;
4122;SDS011;2075;51.062;6.920;2023-04-03T02:29:12;7.27;;;6.20;;
4122;SDS011;2075;51.062;6.920;2023-04-03T02:31:57;6.70;;;5.87;;
4122;SDS011;2075;51.062;6.920;2023-04-03T02:34:45;7.77;;;5.80;;
4122;SDS011;2075;51.062;6.920;2023-04-03T02:37:32;7.80;;;6.33;;
4122;SDS011;2075;51.062;6.920;2023-04-03T02:40:19;9.00;;;7.07;;
4122;SDS011;2075;51.062;6.920;2023-04-03T02:43:05;8.10;;;5.83;;
4122;SDS011;2075;51.062;6.920;2023-04-03T02:45:51;8.70;;;6.33;;
4122;SDS011;2075;51.062;6.920;2023-04-03T02:48:37;7.77;;;6.13;;
4122;SDS011;2075;51.062;6.920;2023-04-03T02:51:22;7.80;;;6.53;;
4122;SDS011;2075;51.062;6.920;2023-04-03T02:54:09;9.17;;;5.50;;
4122;SDS011;2075;51.062;6.920;2023-04-03T02:56:59;8.77;;;6.00;;
4122;SDS011;2075;51.062;6.920;2023-04-03T02:59:45;7.33;;;5.80;;
4122;SDS011;2075;51.062;6.920;2023-04-03T03:02:31;14.53;;;6.10;;
4122;SDS011;2075;51.062;6.920;2023-04-03T03:05:16;8.67;;;6.13;;
4122;SDS011;2075;51.062;6.920;2023-04-03T03:08:03;18.13;;;6.10;;
4122;SDS011;2075;51.062;6.920;2023-04-03T03:10:48;9.20;;;6.23;;
4122;SDS011;2075;51.062;6.920;2023-04-03T03:13:38;8.37;;;5.70;;
4122;SDS011;2075;51.062;6.920;2023-04-03T03:16:26;7.67;;;6.27;;
4122;SDS011;2075;51.062;6.920;2023-04-03T03:19:14;17.17;;;5.93;;
4122;SDS011;2075;51.062;6.920;2023-04-03T03:22:03;11.00;;;5.90;;
4122;SDS011;2075;51.062;6.920;2023-04-03T03:24:49;9.90;;;5.63;;
4122;SDS011;2075;51.062;6.920;2023-04-03T03:27:39;7.53;;;5.90;;
4122;SDS011;2075;51.062;6.920;2023-04-03T03:30:32;8.67;;;5.77;;
4122;SDS011;2075;51.062;6.920;2023-04-03T03:33:18;8.50;;;5.97;;
4122;SDS011;2075;51.062;6.920;2023-04-03T03:36:05;6.77;;;5.17;;
4122;SDS011;2075;51.062;6.920;2023-04-03T03:38:50;7.87;;;5.17;;
4122;SDS011;2075;51.062;6.920;2023-04-03T03:41:36;10.50;;;5.50;;
4122;SDS011;2075;51.062;6.920;2023-04-03T03:44:22;7.83;;;5.53;;
4122;SDS011;2075;51.062;6.920;2023-04-03T03:47:09;9.17;;;5.47;;
4122;SDS011;2075;51.062;6.920;2023-04-03T03:49:56;6.60;;;4.90;;
4122;SDS011;2075;51.062;6.920;2023-04-03T03:52:43;6.47;;;5.37;;
4122;SDS011;2075;51.062;6.920;2023-04-03T03:55:29;6.83;;;5.40;;
4122;SDS011;2075;51.062;6.920;2023-04-03T03:58:16;6.80;;;5.03;;
4122;SDS011;2075;51.062;6.920;2023-04-03T04:01:02;5.10;;;4.13;;
4122;SDS011;2075;51.062;6.920;2023-04-03T04:03:57;9.40;;;4.53;;
4122;SDS011;2075;51.062;6.920;2023-04-03T04:06:50;6.37;;;4.30;;
4122;SDS011;2075;51.062;6.920;2023-04-03T04:09:37;6.50;;;4.40;;
4122;SDS011;2075;51.062;6.920;2023-04-03T04:12:27;8.57;;;4.50;;
4122;SDS011;2075;51.062;6.920;2023-04-03T04:15:15;8.30;;;4.70;;
4122;SDS011;2075;51.062;6.920;2023-04-03T04:18:07;7.80;;;4.40;;
4122;SDS011;2075;51.062;6.920;2023-04-03T04:21:03;5.33;;;4.13;;
4122;SDS011;2075;51.062;6.920;2023-04-03T04:23:50;5.40;;;4.00;;
4122;SDS011;2075;51.062;6.920;2023-04-03T04:26:42;5.43;;;4.10;;
4122;SDS011;2075;51.062;6.920;2023-04-03T04:29:31;4.70;;;3.17;;
4122;SDS011;2075;51.062;6.920;2023-04-03T04:32:21;6.77;;;3.33;;
4122;SDS011;2075;51.062;6.920;2023-04-03T04:35:17;3.27;;;2.73;;
4122;SDS011;2075;51.062;6.920;2023-04-03T04:38:13;5.63;;;2.90;;
4122;SDS011;2075;51.062;6.920;2023-04-03T04:41:04;5.93;;;3.00;;
4122;SDS011;2075;51.062;6.920;2023-04-03T04:43:54;4.15;;;3.25;;
4122;SDS011;2075;51.062;6.920;2023-04-03T04:46:40;4.93;;;2.70;;
4122;SDS011;2075;51.062;6.920;2023-04-03T04:49:26;14.63;;;3.77;;
4122;SDS011;2075;51.062;6.920;2023-04-03T04:52:12;5.07;;;2.40;;
4122;SDS011;2075;51.062;6.920;2023-04-03T04:55:02;6.83;;;3.03;;
4122;SDS011;2075;51.062;6.920;2023-04-03T04:57:48;3.60;;;2.53;;
4122;SDS011;2075;51.062;6.920;2023-04-03T05:00:35;6.80;;;3.23;;
4122;SDS011;2075;51.062;6.920;2023-04-03T05:03:21;6.22;;;3.50;;
4122;SDS011;2075;51.062;6.920;2023-04-03T05:06:07;9.07;;;3.20;;
4122;SDS011;2075;51.062;6.920;2023-04-03T05:08:53;4.47;;;3.20;;
4122;SDS011;2075;51.062;6.920;2023-04-03T05:11:40;4.70;;;2.80;;
4122;SDS011;2075;51.062;6.920;2023-04-03T05:14:27;5.97;;;4.07;;
4122;SDS011;2075;51.062;6.920;2023-04-03T05:17:18;11.33;;;3.63;;
4122;SDS011;2075;51.062;6.920;2023-04-03T05:20:08;7.47;;;3.40;;
4122;SDS011;2075;51.062;6.920;2023-04-03T05:22:55;7.80;;;3.33;;
4122;SDS011;2075;51.062;6.920;2023-04-03T05:25:40;6.90;;;4.40;;
4122;SDS011;2075;51.062;6.920;2023-04-03T05:28:30;8.70;;;3.60;;
4122;SDS011;2075;51.062;6.920;2023-04-03T05:31:18;9.30;;;4.20;;
4122;SDS011;2075;51.062;6.920;2023-04-03T05:34:04;7.33;;;3.47;;
4122;SDS011;2075;51.062;6.920;2023-04-03T05:36:53;9.73;;;3.57;;
4122;SDS011;2075;51.062;6.920;2023-04-03T05:39:39;5.97;;;3.63;;
4122;SDS011;2075;51.062;6.920;2023-04-03T05:42:25;6.50;;;3.97;;
4122;SDS011;2075;51.062;6.920;2023-04-03T05:45:12;12.70;;;4.40;;
4122;SDS011;2075;51.062;6.920;2023-04-03T05:47:58;7.87;;;3.77;;
4122;SDS011;2075;51.062;6.920;2023-04-03T05:50:44;8.60;;;3.60;;
4122;SDS011;2075;51.062;6.920;2023-04-03T05:53:35;7.63;;;3.60;;
4122;SDS011;2075;51.062;6.920;2023-04-03T05:56:23;6.17;;;4.00;;
4122;SDS011;2075;51.062;6.920;2023-04-03T05:59:09;4.17;;;3.30;;
4122;SDS011;2075;51.062;6.920;2023-04-03T06:01:57;8.93;;;3.70;;
4122;SDS011;2075;51.062;6.920;2023-04-03T06:04:42;3.17;;;2.90;;
4122;SDS011;2075;51.062;6.920;2023-04-03T06:07:28;5.72;;;3.45;;
4122;SDS011;2075;51.062;6.920;2023-04-03T06:10:28;7.23;;;3.10;;
4122;SDS011;2075;51.062;6.920;2023-04-03T06:13:14;4.80;;;2.72;;
4122;SDS011;2075;51.062;6.920;2023-04-03T06:16:00;3.70;;;2.30;;
4122;SDS011;2075;51.062;6.920;2023-04-03T06:18:47;3.37;;;2.60;;
4122;SDS011;2075;51.062;6.920;2023-04-03T06:21:33;5.53;;;2.60;;
4122;SDS011;2075;51.062;6.920;2023-04-03T06:24:20;2.60;;;2.50;;
4122;SDS011;2075;51.062;6.920;2023-04-03T06:27:08;5.80;;;3.10;;
4122;SDS011;2075;51.062;6.920;2023-04-03T06:29:55;6.27;;;2.70;;
4122;SDS011;2075;51.062;6.920;2023-04-03T06:32:43;4.10;;;2.70;;
4122;SDS011;2075;51.062;6.920;2023-04-03T06:35:33;4.67;;;2.80;;
4122;SDS011;2075;51.062;6.920;2023-04-03T06:38:20;6.37;;;2.50;;
4122;SDS011;2075;51.062;6.920;2023-04-03T06:41:05;5.63;;;2.70;;
4122;SDS011;2075;51.062;6.920;2023-04-03T06:43:50;3.63;;;2.90;;
4122;SDS011;2075;51.062;6.920;2023-04-03T06:46:37;3.10;;;2.80;;
4122;SDS011;2075;51.062;6.920;2023-04-03T06:49:26;5.10;;;2.80;;
4122;SDS011;2075;51.062;6.920;2023-04-03T06:52:19;5.53;;;3.30;;
4122;SDS011;2075;51.062;6.920;2023-04-03T06:55:06;6.30;;;2.63;;
4122;SDS011;2075;51.062;6.920;2023-04-03T06:57:56;4.13;;;3.00;;
4122;SDS011;2075;51.062;6.920;2023-04-03T07:00:43;6.00;;;2.97;;
4122;SDS011;2075;51.062;6.920;2023-04-03T07:03:35;4.17;;;2.63;;
4122;SDS011;2075;51.062;6.920;2023-04-03T07:06:29;6.77;;;2.93;;
4122;SDS011;2075;51.062;6.920;2023-04-03T07:09:24;5.30;;;2.60;;
4122;SDS011;2075;51.062;6.920;2023-04-03T07:12:10;2.70;;;2.50;;
4122;SDS011;2075;51.062;6.920;2023-04-03T07:15:00;7.50;;;2.57;;
4122;SDS011;2075;51.062;6.920;2023-04-03T07:17:47;3.57;;;2.60;;
4122;SDS011;2075;51.062;6.920;2023-04-03T07:20:33;2.73;;;2.40;;
4122;SDS011;2075;51.062;6.920;2023-04-03T07:23:19;3.20;;;2.90;;
4122;SDS011;2075;51.062;6.920;2023-04-03T07:26:09;2.60;;;2.50;;
4122;SDS011;2075;51.062;6.920;2023-04-03T07:28:54;9.00;;;2.50;;
4122;SDS011;2075;51.062;6.920;2023-04-03T07:31:40;5.20;;;2.35;;
4122;SDS011;2075;51.062;6.920;2023-04-03T07:34:26;6.07;;;2.40;;
4122;SDS011;2075;51.062;6.920;2023-04-03T07:37:12;3.03;;;2.43;;
4122;SDS011;2075;51.062;6.920;2023-04-03T07:39:58;3.40;;;2.20;;
4122;SDS011;2075;51.062;6.920;2023-04-03T07:42:48;2.80;;;2.60;;
4122;SDS011;2075;51.062;6.920;2023-04-03T07:45:34;2.83;;;1.60;;
4122;SDS011;2075;51.062;6.920;2023-04-03T07:48:21;4.07;;;2.60;;
4122;SDS011;2075;51.062;6.920;2023-04-03T07:51:09;2.50;;;2.30;;
4122;SDS011;2075;51.062;6.920;2023-04-03T07:53:55;3.07;;;1.93;;
4122;SDS011;2075;51.062;6.920;2023-04-03T07:56:40;2.90;;;1.93;;
4122;SDS011;2075;51.062;6.920;2023-04-03T07:59:29;5.77;;;2.23;;
4122;SDS011;2075;51.062;6.920;2023-04-03T08:02:15;5.80;;;1.93;;
4122;SDS011;2075;51.062;6.920;2023-04-03T08:05:06;5.03;;;1.73;;
4122;SDS011;2075;51.062;6.920;2023-04-03T08:07:53;2.33;;;2.00;;
4122;SDS011;2075;51.062;6.920;2023-04-03T08:10:39;6.03;;;1.90;;
4122;SDS011;2075;51.062;6.920;2023-04-03T08:13:25;3.40;;;2.20;;
4122;SDS011;2075;51.062;6.920;2023-04-03T08:16:15;5.20;;;1.80;;
4122;SDS011;2075;51.062;6.920;2023-04-03T08:19:07;2.87;;;1.87;;
4122;SDS011;2075;51.062;6.920;2023-04-03T08:21:53;2.50;;;1.80;;
4122;SDS011;2075;51.062;6.920;2023-04-03T08:24:43;9.53;;;2.10;;
4122;SDS011;2075;51.062;6.920;2023-04-03T08:27:34;3.63;;;1.63;;
4122;SDS011;2075;51.062;6.920;2023-04-03T08:30:23;3.03;;;1.50;;
4122;SDS011;2075;51.062;6.920;2023-04-03T08:33:14;4.00;;;2.17;;
4122;SDS011;2075;51.062;6.920;2023-04-03T08:36:00;4.43;;;2.00;;
4122;SDS011;2075;51.062;6.920;2023-04-03T08:38:46;1.77;;;1.67;;
4122;SDS011;2075;51.062;6.920;2023-04-03T08:41:33;2.43;;;1.73;;
4122;SDS011;2075;51.062;6.920;2023-04-03T08:44:23;1.73;;;1.40;;
4122;SDS011;2075;51.062;6.920;2023-04-03T08:47:12;5.10;;;1.98;;
4122;SDS011;2075;51.062;6.920;2023-04-03T08:50:11;3.50;;;1.60;;
4122;SDS011;2075;51.062;6.920;2023-04-03T08:52:59;4.97;;;1.50;;
4122;SDS011;2075;51.062;6.920;2023-04-03T08:55:49;3.07;;;1.97;;
4122;SDS011;2075;51.062;6.920;2023-04-03T08:58:36;3.90;;;1.73;;
4122;SDS011;2075;51.062;6.920;2023-04-03T09:01:33;5.70;;;1.80;;
4122;SDS011;2075;51.062;6.920;2023-04-03T09:04:20;2.50;;;1.60;;
4122;SDS011;2075;51.062;6.920;2023-04-03T09:07:08;10.00;;;1.63;;
4122;SDS011;2075;51.062;6.920;2023-04-03T09:10:00;1.63;;;1.47;;
4122;SDS011;2075;51.062;6.920;2023-04-03T09:12:48;2.47;;;1.60;;
4122;SDS011;2075;51.062;6.920;2023-04-03T09:15:38;3.17;;;1.87;;
4122;SDS011;2075;51.062;6.920;2023-04-03T09:18:26;1.98;;;1.77;;
4122;SDS011;2075;51.062;6.920;2023-04-03T09:21:19;1.50;;;1.40;;
4122;SDS011;2075;51.062;6.920;2023-04-03T09:24:12;2.40;;;1.52;;
4122;SDS011;2075;51.062;6.920;2023-04-03T09:27:01;8.73;;;1.80;;
4122;SDS011;2075;51.062;6.920;2023-04-03T09:29:52;1.43;;;1.33;;
4122;SDS011;2075;51.062;6.920;2023-04-03T09:32:39;1.50;;;1.40;;
4122;SDS011;2075;51.062;6.920;2023-04-03T09:35:25;3.33;;;1.30;;
4122;SDS011;2075;51.062;6.920;2023-04-03T09:38:17;5.40;;;1.30;;
4122;SDS011;2075;51.062;6.920;2023-04-03T09:41:06;1.30;;;1.20;;
4122;SDS011;2075;51.062;6.920;2023-04-03T09:43:58;1.50;;;1.40;;
4122;SDS011;2075;51.062;6.920;2023-04-03T09:46:43;2.03;;;1.50;;
4122;SDS011;2075;51.062;6.920;2023-04-03T09:49:29;1.87;;;1.27;;
4122;SDS011;2075;51.062;6.920;2023-04-03T09:52:18;3.60;;;1.30;;
4122;SDS011;2075;51.062;6.920;2023-04-03T09:55:06;3.65;;;1.50;;
4122;SDS011;2075;51.062;6.920;2023-04-03T09:57:54;1.20;;;1.20;;
4122;SDS011;2075;51.062;6.920;2023-04-03T10:00:41;3.07;;;1.67;;
4122;SDS011;2075;51.062;6.920;2023-04-03T10:03:28;1.20;;;1.10;;
4122;SDS011;2075;51.062;6.920;2023-04-03T10:06:22;2.03;;;1.50;;
4122;SDS011;2075;51.062;6.920;2023-04-03T10:09:25;2.50;;;1.60;;
4122;SDS011;2075;51.062;6.920;2023-04-03T10:12:12;2.30;;;1.63;;
4122;SDS011;2075;51.062;6.920;2023-04-03T10:15:00;1.63;;;1.47;;
4122;SDS011;2075;51.062;6.920;2023-04-03T10:17:56;1.80;;;1.50;;
4122;SDS011;2075;51.062;6.920;2023-04-03T10:20:46;3.10;;;1.40;;
4122;SDS011;2075;51.062;6.920;2023-04-03T10:23:36;2.03;;;1.50;;
4122;SDS011;2075;51.062;6.920;2023-04-03T10:26:31;1.90;;;1.50;;
4122;SDS011;2075;51.062;6.920;2023-04-03T10:29:33;3.00;;;1.70;;
4122;SDS011;2075;51.062;6.920;2023-04-03T10:32:44;3.00;;;1.43;;
4122;SDS011;2075;51.062;6.920;2023-04-03T10:35:39;6.38;;;1.50;;
4122;SDS011;2075;51.062;6.920;2023-04-03T10:38:31;2.40;;;1.40;;
4122;SDS011;2075;51.062;6.920;2023-04-03T10:41:23;1.60;;;1.50;;
4122;SDS011;2075;51.062;6.920;2023-04-03T10:44:19;1.50;;;1.20;;
4122;SDS011;2075;51.062;6.920;2023-04-03T10:47:16;1.03;;;1.00;;
4122;SDS011;2075;51.062;6.920;2023-04-03T10:50:12;1.30;;;1.20;;
4122;SDS011;2075;51.062;6.920;2023-04-03T10:53:12;2.60;;;1.20;;
4122;SDS011;2075;51.062;6.920;2023-04-03T10:56:08;2.87;;;1.37;;
4122;SDS011;2075;51.062;6.920;2023-04-03T10:59:02;1.70;;;1.10;;
4122;SDS011;2075;51.062;6.920;2023-04-03T11:01:59;1.93;;;1.50;;
4122;SDS011;2075;51.062;6.920;2023-04-03T11:04:51;2.20;;;1.40;;
4122;SDS011;2075;51.062;6.920;2023-04-03T11:07:43;1.33;;;1.10;;
4122;SDS011;2075;51.062;6.920;2023-04-03T11:10:36;1.73;;;1.20;;
4122;SDS011;2075;51.062;6.920;2023-04-03T11:13:28;2.70;;;1.73;;
4122;SDS011;2075;51.062;6.920;2023-04-03T11:16:19;4.18;;;1.50;;
4122;SDS011;2075;51.062;6.920;2023-04-03T11:19:11;1.37;;;1.27;;
4122;SDS011;2075;51.062;6.920;2023-04-03T11:22:00;1.70;;;1.40;;
4122;SDS011;2075;51.062;6.920;2023-04-03T11:24:56;0.97;;;0.93;;
4122;SDS011;2075;51.062;6.920;2023-04-03T11:27:48;2.77;;;1.30;;
4122;SDS011;2075;51.062;6.920;2023-04-03T11:30:39;1.37;;;1.27;;
4122;SDS011;2075;51.062;6.920;2023-04-03T11:33:32;1.30;;;1.20;;
4122;SDS011;2075;51.062;6.920;2023-04-03T11:36:26;1.87;;;1.30;;
4122;SDS011;2075;51.062;6.920;2023-04-03T11:39:17;1.50;;;1.40;;
4122;SDS011;2075;51.062;6.920;2023-04-03T11:42:16;2.00;;;1.10;;
4122;SDS011;2075;51.062;6.920;2023-04-03T11:45:25;1.40;;;1.10;;
4122;SDS011;2075;51.062;6.920;2023-04-03T11:51:43;1.13;;;1.13;;
4122;SDS011;2075;51.062;6.920;2023-04-03T11:54:47;1.07;;;1.00;;
4122;SDS011;2075;51.062;6.920;2023-04-03T12:01:09;1.40;;;1.30;;
4122;SDS011;2075;51.062;6.920;2023-04-03T12:03:56;1.27;;;1.00;;
4122;SDS011;2075;51.062;6.920;2023-04-03T12:10:16;1.53;;;1.30;;
4122;SDS011;2075;51.062;6.920;2023-04-03T12:13:13;2.00;;;1.40;;
4122;SDS011;2075;51.062;6.920;2023-04-03T12:16:01;1.10;;;1.10;;
4122;SDS011;2075;51.062;6.920;2023-04-03T12:18:55;4.10;;;1.40;;
4122;SDS011;2075;51.062;6.920;2023-04-03T12:24:52;1.10;;;1.10;;
4122;SDS011;2075;51.062;6.920;2023-04-03T12:27:38;3.17;;;1.27;;
4122;SDS011;2075;51.062;6.920;2023-04-03T12:30:29;2.47;;;1.30;;
4122;SDS011;2075;51.062;6.920;2023-04-03T12:33:18;2.20;;;1.20;;
4122;SDS011;2075;51.062;6.920;2023-04-03T12:36:10;1.67;;;1.10;;
4122;SDS011;2075;51.062;6.920;2023-04-03T12:39:04;10.53;;;1.43;;
4122;SDS011;2075;51.062;6.920;2023-04-03T12:42:02;3.43;;;1.40;;
4122;SDS011;2075;51.062;6.920;2023-04-03T12:44:58;1.13;;;1.13;;
4122;SDS011;2075;51.062;6.920;2023-04-03T12:47:56;1.30;;;1.20;;
4122;SDS011;2075;51.062;6.920;2023-04-03T12:50:42;1.40;;;1.30;;
4122;SDS011;2075;51.062;6.920;2023-04-03T12:53:31;1.23;;;1.13;;
4122;SDS011;2075;51.062;6.920;2023-04-03T12:56:21;4.30;;;1.37;;
4122;SDS011;2075;51.062;6.920;2023-04-03T12:59:13;1.40;;;1.30;;
4122;SDS011;2075;51.062;6.920;2023-04-03T13:02:00;1.50;;;1.40;;
4122;SDS011;2075;51.062;6.920;2023-04-03T13:04:48;1.73;;;1.40;;
4122;SDS011;2075;51.062;6.920;2023-04-03T13:07:35;1.90;;;1.10;;
4122;SDS011;2075;51.062;6.920;2023-04-03T13:10:24;3.60;;;2.07;;
4122;SDS011;2075;51.062;6.920;2023-04-03T13:13:10;1.20;;;1.20;;
4122;SDS011;2075;51.062;6.920;2023-04-03T13:15:55;2.80;;;1.30;;
4122;SDS011;2075;51.062;6.920;2023-04-03T13:18:41;2.73;;;1.20;;
4122;SDS011;2075;51.062;6.920;2023-04-03T13:21:28;2.70;;;1.63;;
4122;SDS011;2075;51.062;6.920;2023-04-03T13:24:17;1.93;;;1.10;;
4122;SDS011;2075;51.062;6.920;2023-04-03T13:27:03;2.53;;;1.30;;
4122;SDS011;2075;51.062;6.920;2023-04-03T13:29:50;1.40;;;1.30;;
4122;SDS011;2075;51.062;6.920;2023-04-03T13:32:36;2.43;;;1.10;;
4122;SDS011;2075;51.062;6.920;2023-04-03T13:35:29;1.33;;;1.23;;
4122;SDS011;2075;51.062;6.920;2023-04-03T13:38:24;4.37;;;1.60;;
4122;SDS011;2075;51.062;6.920;2023-04-03T13:41:24;1.60;;;1.50;;
4122;SDS011;2075;51.062;6.920;2023-04-03T13:44:15;3.57;;;1.37;;
4122;SDS011;2075;51.062;6.920;2023-04-03T13:47:16;7.77;;;1.80;;
4122;SDS011;2075;51.062;6.920;2023-04-03T13:50:12;4.50;;;1.60;;
4122;SDS011;2075;51.062;6.920;2023-04-03T13:53:00;1.30;;;1.30;;
4122;SDS011;2075;51.062;6.920;2023-04-03T13:55:57;1.50;;;1.40;;
4122;SDS011;2075;51.062;6.920;2023-04-03T13:58:54;1.60;;;1.50;;
4122;SDS011;2075;51.062;6.920;2023-04-03T14:01:43;1.63;;;1.30;;
4122;SDS011;2075;51.062;6.920;2023-04-03T14:04:33;1.60;;;1.50;;
4122;SDS011;2075;51.062;6.920;2023-04-03T14:07:31;2.00;;;1.60;;
4122;SDS011;2075;51.062;6.920;2023-04-03T14:10:17;2.23;;;1.27;;
4122;SDS011;2075;51.062;6.920;2023-04-03T14:13:03;4.60;;;1.43;;
4122;SDS011;2075;51.062;6.920;2023-04-03T14:15:49;2.93;;;1.30;;
4122;SDS011;2075;51.062;6.920;2023-04-03T14:18:35;8.83;;;1.90;;
4122;SDS011;2075;51.062;6.920;2023-04-03T14:21:21;2.93;;;1.70;;
4122;SDS011;2075;51.062;6.920;2023-04-03T14:24:07;3.33;;;1.50;;
4122;SDS011;2075;51.062;6.920;2023-04-03T14:26:53;5.40;;;1.93;;
4122;SDS011;2075;51.062;6.920;2023-04-03T14:29:41;11.53;;;1.63;;
4122;SDS011;2075;51.062;6.920;2023-04-03T14:32:27;3.27;;;2.37;;
4122;SDS011;2075;51.062;6.920;2023-04-03T14:35:12;1.50;;;1.40;;
4122;SDS011;2075;51.062;6.920;2023-04-03T14:37:58;1.10;;;1.00;;
4122;SDS011;2075;51.062;6.920;2023-04-03T14:40:43;2.85;;;1.70;;
4122;SDS011;2075;51.062;6.920;2023-04-03T14:43:29;2.83;;;2.00;;
4122;SDS011;2075;51.062;6.920;2023-04-03T14:46:16;3.37;;;1.90;;
4122;SDS011;2075;51.062;6.920;2023-04-03T14:49:05;2.83;;;1.30;;
4122;SDS011;2075;51.062;6.920;2023-04-03T14:51:59;1.50;;;1.40;;
4122;SDS011;2075;51.062;6.920;2023-04-03T14:54:44;4.60;;;2.10;;
4122;SDS011;2075;51.062;6.920;2023-04-03T14:57:30;1.40;;;1.30;;
4122;SDS011;2075;51.062;6.920;2023-04-03T15:00:17;1.23;;;1.23;;
4122;SDS011;2075;51.062;6.920;2023-04-03T15:03:05;6.00;;;1.70;;
4122;SDS011;2075;51.062;6.920;2023-04-03T15:05:51;4.50;;;1.90;;
4122;SDS011;2075;51.062;6.920;2023-04-03T15:08:36;2.80;;;1.40;;
4122;SDS011;2075;51.062;6.920;2023-04-03T15:11:21;1.70;;;1.60;;
4122;SDS011;2075;51.062;6.920;2023-04-03T15:14:08;2.97;;;1.53;;
4122;SDS011;2075;51.062;6.920;2023-04-03T15:16:54;3.97;;;1.50;;
4122;SDS011;2075;51.062;6.920;2023-04-03T15:19:41;1.67;;;1.50;;
4122;SDS011;2075;51.062;6.920;2023-04-03T15:22:26;2.25;;;1.65;;
4122;SDS011;2075;51.062;6.920;2023-04-03T15:25:12;1.60;;;1.50;;
4122;SDS011;2075;51.062;6.920;2023-04-03T15:27:58;3.60;;;1.80;;
4122;SDS011;2075;51.062;6.920;2023-04-03T15:30:45;3.13;;;1.40;;
4122;SDS011;2075;51.062;6.920;2023-04-03T15:33:30;1.60;;;1.50;;
4122;SDS011;2075;51.062;6.920;2023-04-03T15:36:18;1.70;;;1.60;;
4122;SDS011;2075;51.062;6.920;2023-04-03T15:39:03;2.20;;;1.80;;
4122;SDS011;2075;51.062;6.920;2023-04-03T15:41:49;3.37;;;1.70;;
4122;SDS011;2075;51.062;6.920;2023-04-03T15:44:35;2.60;;;1.60;;
4122;SDS011;2075;51.062;6.920;2023-04-03T15:47:21;2.97;;;1.70;;
4122;SDS011;2075;51.062;6.920;2023-04-03T15:50:07;5.57;;;1.93;;
4122;SDS011;2075;51.062;6.920;2023-04-03T15:52:54;3.10;;;1.70;;
4122;SDS011;2075;51.062;6.920;2023-04-03T15:55:41;1.63;;;1.50;;
4122;SDS011;2075;51.062;6.920;2023-04-03T15:58:27;3.40;;;1.90;;
4122;SDS011;2075;51.062;6.920;2023-04-03T16:01:13;4.60;;;2.00;;
4122;SDS011;2075;51.062;6.920;2023-04-03T16:04:00;3.60;;;2.03;;
4122;SDS011;2075;51.062;6.920;2023-04-03T16:06:45;1.77;;;1.30;;
4122;SDS011;2075;51.062;6.920;2023-04-03T16:09:33;2.53;;;1.53;;
4122;SDS011;2075;51.062;6.920;2023-04-03T16:12:20;1.88;;;1.50;;
4122;SDS011;2075;51.062;6.920;2023-04-03T16:15:06;4.57;;;1.67;;
4122;SDS011;2075;51.062;6.920;2023-04-03T16:17:52;4.40;;;1.87;;
4122;SDS011;2075;51.062;6.920;2023-04-03T16:20:38;1.93;;;1.53;;
4122;SDS011;2075;51.062;6.920;2023-04-03T16:23:27;2.03;;;1.50;;
4122;SDS011;2075;51.062;6.920;2023-04-03T16:26:14;2.33;;;1.80;;
4122;SDS011;2075;51.062;6.920;2023-04-03T16:29:01;5.72;;;1.90;;
4122;SDS011;2075;51.062;6.920;2023-04-03T16:31:46;1.87;;;1.60;;
4122;SDS011;2075;51.062;6.920;2023-04-03T16:34:32;1.83;;;1.67;;
4122;SDS011;2075;51.062;6.920;2023-04-03T16:37:17;3.10;;;1.77;;
4122;SDS011;2075;51.062;6.920;2023-04-03T16:40:08;2.87;;;1.40;;
4122;SDS011;2075;51.062;6.920;2023-04-03T16:42:58;3.07;;;1.40;;
4122;SDS011;2075;51.062;6.920;2023-04-03T16:45:46;3.47;;;1.73;;
4122;SDS011;2075;51.062;6.920;2023-04-03T16:48:32;5.20;;;2.10;;
4122;SDS011;2075;51.062;6.920;2023-04-03T16:51:19;1.73;;;1.47;;
4122;SDS011;2075;51.062;6.920;2023-04-03T16:54:05;7.27;;;1.53;;
4122;SDS011;2075;51.062;6.920;2023-04-03T16:56:50;2.50;;;1.60;;
4122;SDS011;2075;51.062;6.920;2023-04-03T16:59:38;1.80;;;1.30;;
4122;SDS011;2075;51.062;6.920;2023-04-03T17:02:24;1.67;;;1.57;;
4122;SDS011;2075;51.062;6.920;2023-04-03T17:05:10;2.47;;;1.37;;
4122;SDS011;2075;51.062;6.920;2023-04-03T17:07:55;3.23;;;1.60;;
4122;SDS011;2075;51.062;6.920;2023-04-03T17:10:41;1.67;;;1.40;;
4122;SDS011;2075;51.062;6.920;2023-04-03T17:13:26;2.87;;;1.60;;
4122;SDS011;2075;51.062;6.920;2023-04-03T17:16:17;3.57;;;1.70;;
4122;SDS011;2075;51.062;6.920;2023-04-03T17:19:03;6.03;;;1.73;;
4122;SDS011;2075;51.062;6.920;2023-04-03T17:21:49;3.20;;;1.70;;
4122;SDS011;2075;51.062;6.920;2023-04-03T17:24:35;1.53;;;1.43;;
4122;SDS011;2075;51.062;6.920;2023-04-03T17:27:21;3.25;;;1.90;;
4122;SDS011;2075;51.062;6.920;2023-04-03T17:30:07;2.03;;;1.70;;
4122;SDS011;2075;51.062;6.920;2023-04-03T17:32:55;3.20;;;1.50;;
4122;SDS011;2075;51.062;6.920;2023-04-03T17:35:40;2.45;;;1.80;;
4122;SDS011;2075;51.062;6.920;2023-04-03T17:38:26;3.73;;;2.13;;
4122;SDS011;2075;51.062;6.920;2023-04-03T17:41:12;3.50;;;1.83;;
4122;SDS011;2075;51.062;6.920;2023-04-03T17:43:58;2.47;;;1.60;;
4122;SDS011;2075;51.062;6.920;2023-04-03T17:46:44;5.07;;;1.90;;
4122;SDS011;2075;51.062;6.920;2023-04-03T17:49:33;2.00;;;1.67;;
4122;SDS011;2075;51.062;6.920;2023-04-03T17:52:19;2.10;;;1.80;;